Time;durP1;ratioP1;P1;durP2;ratioP2;P2;SDS_P1;SDS_P2;PMS_P1;PMS_P2;Temp;Humidity;BMP_temperature;BMP_pressure;BME280_temperature;BME280_humidity;BME280_pressure;Samples;Min_cycle;Max_cycle;Signal;HPM_P1;HPM_P2
2022/03/16 00:00:05;;;;;;;0.30;0.30;;;9.30;99.90;;;;;;5025001;28;20645;-69
2022/03/16 00:02:31;;;;;;;0.10;0.10;;;9.30;99.90;;;;;;5024634;28;20044;-69
2022/03/16 00:04:56;;;;;;;1.65;1.13;;;9.30;99.90;;;;;;5025783;28;20017;-68
2022/03/16 00:07:23;;;;;;;0.17;0.17;;;9.30;99.90;;;;;;5026051;28;20057;-69
2022/03/16 00:09:49;;;;;;;0.22;0.22;;;9.40;99.90;;;;;;5025717;28;20017;-69
2022/03/16 00:12:16;;;;;;;0.75;0.75;;;9.40;99.90;;;;;;5025428;28;20033;-70
2022/03/16 00:14:42;;;;;;;0.32;0.32;;;9.40;99.90;;;;;;5029445;28;20347;-69
2022/03/16 00:17:08;;;;;;;0.45;0.45;;;9.50;99.90;;;;;;5028150;28;20028;-68
2022/03/16 00:19:35;;;;;;;0.10;0.10;;;9.50;99.90;;;;;;5028581;28;20033;-69
2022/03/16 00:22:03;;;;;;;0.10;0.10;;;9.50;99.90;;;;;;5027878;28;20099;-70
2022/03/16 00:24:28;;;;;;;0.10;0.10;;;9.40;99.90;;;;;;5025323;28;20030;-68
2022/03/16 00:26:54;;;;;;;0.52;0.52;;;9.40;99.90;;;;;;5027073;28;20026;-68
2022/03/16 00:29:20;;;;;;;0.50;0.50;;;9.40;99.90;;;;;;5026927;28;20426;-69
2022/03/16 00:31:46;;;;;;;0.22;0.22;;;9.30;99.90;;;;;;5029036;28;20044;-69
2022/03/16 00:34:12;;;;;;;0.68;0.68;;;9.30;99.90;;;;;;5026652;28;20035;-68
2022/03/16 00:36:38;;;;;;;0.13;0.13;;;9.30;99.90;;;;;;5026930;28;20057;-67
2022/03/16 00:39:04;;;;;;;0.10;0.10;;;9.30;99.90;;;;;;5026250;28;20554;-68
2022/03/16 00:41:32;;;;;;;0.10;0.10;;;9.30;99.90;;;;;;5027810;28;20052;-67
2022/03/16 00:43:58;;;;;;;0.10;0.10;;;9.30;99.90;;;;;;5028394;28;20121;-67
2022/03/16 00:46:24;;;;;;;0.30;0.30;;;9.30;99.90;;;;;;5026075;28;20026;-67
2022/03/16 00:48:49;;;;;;;0.20;0.20;;;9.30;99.90;;;;;;5025975;28;20029;-69
2022/03/16 00:51:15;;;;;;;0.10;0.10;;;9.20;99.90;;;;;;5027280;28;20033;-69
2022/03/16 00:53:42;;;;;;;0.22;0.22;;;9.30;99.90;;;;;;5027503;28;20040;-67
2022/03/16 00:56:08;;;;;;;0.55;0.55;;;9.30;99.90;;;;;;5026546;28;20094;-68
2022/03/16 00:58:35;;;;;;;0.10;0.10;;;9.30;99.90;;;;;;5027558;28;20035;-68
2022/03/16 01:01:01;;;;;;;0.20;0.20;;;9.30;99.90;;;;;;5027206;28;20017;-69
2022/03/16 01:03:28;;;;;;;0.10;0.10;;;9.20;99.90;;;;;;5026227;28;20030;-68
2022/03/16 01:05:54;;;;;;;0.30;0.30;;;9.30;99.90;;;;;;5027965;28;20467;-69
2022/03/16 01:08:20;;;;;;;0.10;0.10;;;9.20;99.90;;;;;;5027138;28;20034;-69
2022/03/16 01:10:46;;;;;;;0.10;0.10;;;9.30;99.90;;;;;;5028322;28;20029;-68
2022/03/16 01:13:12;;;;;;;1.65;1.55;;;9.30;99.90;;;;;;5028635;28;20021;-68
2022/03/16 01:15:38;;;;;;;0.17;0.17;;;9.20;99.90;;;;;;5025149;28;20045;-68
2022/03/16 01:18:03;;;;;;;0.10;0.10;;;9.30;99.90;;;;;;5026775;28;20025;-68
2022/03/16 01:20:29;;;;;;;3.00;2.35;;;9.30;99.90;;;;;;5029756;28;20044;-68
2022/03/16 01:22:55;;;;;;;0.68;0.68;;;9.20;99.90;;;;;;5023621;28;20025;-68
2022/03/16 01:25:20;;;;;;;1.00;1.00;;;9.20;99.90;;;;;;5026079;28;20022;-68
2022/03/16 01:27:46;;;;;;;0.10;0.10;;;9.10;99.90;;;;;;5025871;28;20507;-69
2022/03/16 01:30:15;;;;;;;3.83;1.88;;;9.10;99.90;;;;;;5028087;28;20129;-68
2022/03/16 01:32:42;;;;;;;0.50;0.50;;;9.20;99.90;;;;;;5026778;28;20068;-68
2022/03/16 01:35:09;;;;;;;1.38;1.33;;;9.20;99.90;;;;;;5027313;28;20406;-68
2022/03/16 01:37:35;;;;;;;1.65;1.55;;;9.30;99.90;;;;;;5026068;28;20093;-68
2022/03/16 01:40:05;;;;;;;0.10;0.10;;;9.30;99.90;;;;;;5025832;28;20025;-69
2022/03/16 01:42:32;;;;;;;0.15;0.15;;;9.30;99.90;;;;;;5028667;28;20064;-68
2022/03/16 01:44:57;;;;;;;0.10;0.10;;;9.30;99.90;;;;;;5026046;28;20100;-68
2022/03/16 01:47:24;;;;;;;0.85;0.85;;;9.40;99.90;;;;;;5027390;28;20108;-69
2022/03/16 01:49:51;;;;;;;0.20;0.20;;;9.40;99.90;;;;;;5026342;28;20040;-67
2022/03/16 01:52:26;;;;;;;0.13;0.13;;;9.30;99.90;;;;;;5025945;28;20108;-68
2022/03/16 01:54:53;;;;;;;0.10;0.10;;;9.40;99.90;;;;;;5023434;28;20022;-68
2022/03/16 01:57:19;;;;;;;0.90;0.90;;;9.40;99.90;;;;;;5024458;28;20029;-68
2022/03/16 01:59:45;;;;;;;0.10;0.10;;;9.40;99.90;;;;;;5026288;28;20026;-67
2022/03/16 02:02:11;;;;;;;0.10;0.10;;;9.30;99.90;;;;;;5025704;28;20017;-67
2022/03/16 02:04:37;;;;;;;0.40;0.40;;;9.30;99.90;;;;;;5026008;28;20034;-67
2022/03/16 02:07:04;;;;;;;0.20;0.20;;;9.30;99.90;;;;;;5026624;28;20018;-67
2022/03/16 02:09:30;;;;;;;0.17;0.17;;;9.40;99.90;;;;;;5026802;28;20041;-68
2022/03/16 02:11:56;;;;;;;0.15;0.15;;;9.40;99.90;;;;;;5027311;28;20026;-68
2022/03/16 02:14:22;;;;;;;0.10;0.10;;;9.40;99.90;;;;;;5022590;28;20036;-68
2022/03/16 02:16:48;;;;;;;0.50;0.50;;;9.30;99.90;;;;;;5024396;28;20059;-67
2022/03/16 02:19:14;;;;;;;0.47;0.47;;;9.20;99.90;;;;;;5024830;28;20410;-68
2022/03/16 02:21:41;;;;;;;0.10;0.10;;;9.30;99.90;;;;;;5023937;28;20584;-68
2022/03/16 02:24:08;;;;;;;0.20;0.20;;;9.20;99.90;;;;;;5027366;28;20022;-68
2022/03/16 02:26:34;;;;;;;0.22;0.22;;;9.30;99.90;;;;;;5027521;28;20109;-68
2022/03/16 02:29:00;;;;;;;0.20;0.20;;;9.30;99.90;;;;;;5023480;28;20030;-68
2022/03/16 02:31:27;;;;;;;0.17;0.17;;;9.30;99.90;;;;;;5025423;28;20044;-68
2022/03/16 02:33:53;;;;;;;0.10;0.10;;;9.30;99.90;;;;;;5025825;28;20112;-68
2022/03/16 02:36:19;;;;;;;0.10;0.10;;;9.30;99.90;;;;;;5023090;28;20075;-68
2022/03/16 02:38:45;;;;;;;0.10;0.10;;;9.30;99.90;;;;;;5026139;28;20033;-68
2022/03/16 02:41:11;;;;;;;1.20;1.20;;;9.20;99.90;;;;;;5026003;28;20658;-68
2022/03/16 02:43:37;;;;;;;0.10;0.10;;;9.20;99.90;;;;;;5026724;28;20034;-68
2022/03/16 02:46:03;;;;;;;0.10;0.10;;;9.20;99.90;;;;;;5023180;28;20461;-68
2022/03/16 02:48:29;;;;;;;0.85;0.85;;;9.20;99.90;;;;;;5027038;28;20087;-68
2022/03/16 02:50:54;;;;;;;0.10;0.10;;;9.20;99.90;;;;;;5024052;28;20029;-68
2022/03/16 02:53:20;;;;;;;0.10;0.10;;;9.20;99.90;;;;;;5024476;28;20040;-68
2022/03/16 02:55:47;;;;;;;0.30;0.30;;;9.20;99.90;;;;;;5025166;28;20030;-68
2022/03/16 02:58:13;;;;;;;0.10;0.10;;;9.10;99.90;;;;;;5024176;28;20030;-68
2022/03/16 03:00:40;;;;;;;0.20;0.20;;;9.10;99.90;;;;;;5027371;28;20017;-67
2022/03/16 03:03:05;;;;;;;0.40;0.40;;;9.10;99.90;;;;;;5023614;28;20021;-67
2022/03/16 03:05:31;;;;;;;0.35;0.35;;;9.00;99.90;;;;;;5025494;28;20025;-68
2022/03/16 03:07:57;;;;;;;0.13;0.13;;;9.10;99.90;;;;;;5025454;28;20025;-69
2022/03/16 03:10:22;;;;;;;0.20;0.20;;;9.10;99.90;;;;;;5025768;28;20029;-67
2022/03/16 03:12:48;;;;;;;0.10;0.10;;;9.20;99.90;;;;;;5026189;28;20021;-67
2022/03/16 03:15:15;;;;;;;0.10;0.10;;;9.10;99.90;;;;;;5024512;28;20498;-67
2022/03/16 03:17:42;;;;;;;0.10;0.10;;;9.10;99.90;;;;;;5025902;28;20139;-68
2022/03/16 03:20:09;;;;;;;0.25;0.25;;;9.00;99.90;;;;;;5022432;28;20026;-67
2022/03/16 03:22:35;;;;;;;2.40;2.30;;;9.00;99.90;;;;;;5024568;28;20028;-68
2022/03/16 03:25:02;;;;;;;0.40;0.40;;;8.90;99.90;;;;;;5024758;28;20036;-68
2022/03/16 03:27:28;;;;;;;0.20;0.20;;;8.90;99.90;;;;;;5024637;28;20065;-69
2022/03/16 03:29:53;;;;;;;0.52;0.52;;;8.90;99.90;;;;;;5026655;28;20057;-69
2022/03/16 03:32:19;;;;;;;0.25;0.25;;;8.90;99.90;;;;;;5026383;28;20037;-69
2022/03/16 03:34:46;;;;;;;0.45;0.45;;;9.00;99.90;;;;;;5028254;28;20036;-68
2022/03/16 03:37:13;;;;;;;0.70;0.70;;;9.00;99.90;;;;;;5023005;28;20693;-69
2022/03/16 03:39:39;;;;;;;0.50;0.50;;;9.00;99.90;;;;;;5024731;28;20026;-69
2022/03/16 03:42:05;;;;;;;1.67;1.58;;;8.90;99.90;;;;;;5024350;28;20087;-69
2022/03/16 03:44:31;;;;;;;0.45;0.45;;;9.00;99.90;;;;;;5023878;28;20111;-69
2022/03/16 03:46:57;;;;;;;0.20;0.20;;;8.90;99.90;;;;;;5021183;28;20026;-69
2022/03/16 03:49:22;;;;;;;0.25;0.25;;;8.90;99.90;;;;;;5021398;28;20486;-69
2022/03/16 03:51:48;;;;;;;0.57;0.57;;;8.80;99.90;;;;;;5022958;28;20477;-69
2022/03/16 03:54:13;;;;;;;0.10;0.10;;;8.80;99.90;;;;;;5024824;28;20336;-68
2022/03/16 03:56:39;;;;;;;0.15;0.15;;;8.80;99.90;;;;;;5023232;28;20516;-67
2022/03/16 03:59:05;;;;;;;0.40;0.40;;;8.90;99.90;;;;;;5026070;28;20041;-68
2022/03/16 04:01:31;;;;;;;0.20;0.20;;;8.90;99.90;;;;;;5023450;28;20390;-69
2022/03/16 04:03:56;;;;;;;0.10;0.10;;;8.90;99.90;;;;;;5021808;28;20451;-68
2022/03/16 04:06:22;;;;;;;0.10;0.10;;;9.00;99.90;;;;;;5023918;28;20030;-69
2022/03/16 04:08:48;;;;;;;0.30;0.30;;;9.00;99.90;;;;;;5026166;28;20022;-68
2022/03/16 04:11:13;;;;;;;0.35;0.35;;;9.10;99.90;;;;;;5022326;28;20464;-68
2022/03/16 04:13:39;;;;;;;0.10;0.10;;;8.90;99.90;;;;;;5025036;28;20499;-69
2022/03/16 04:16:05;;;;;;;0.93;0.75;;;8.90;99.90;;;;;;5023121;28;20097;-68
2022/03/16 04:18:31;;;;;;;1.30;1.30;;;8.80;99.90;;;;;;5025413;28;20033;-68
2022/03/16 04:20:56;;;;;;;0.25;0.25;;;8.80;99.90;;;;;;5022944;28;20073;-68
2022/03/16 04:23:22;;;;;;;0.28;0.28;;;8.80;99.90;;;;;;5020110;28;20483;-68
2022/03/16 04:25:48;;;;;;;0.32;0.32;;;8.90;99.90;;;;;;5024268;28;20057;-69
2022/03/16 04:28:13;;;;;;;0.10;0.10;;;8.90;99.90;;;;;;5020193;28;20072;-68
2022/03/16 04:30:39;;;;;;;0.28;0.28;;;8.80;99.90;;;;;;5025633;28;20026;-69
2022/03/16 04:33:05;;;;;;;0.15;0.15;;;8.90;99.90;;;;;;5025084;28;20083;-69
2022/03/16 04:35:30;;;;;;;1.20;1.20;;;8.80;99.90;;;;;;5024485;28;20026;-67
2022/03/16 04:37:56;;;;;;;1.55;1.40;;;8.80;99.90;;;;;;5023001;28;20033;-67
2022/03/16 04:40:22;;;;;;;0.10;0.10;;;8.80;99.90;;;;;;5026102;28;20034;-67
2022/03/16 04:42:47;;;;;;;0.17;0.17;;;8.90;99.90;;;;;;5024240;28;20407;-70
2022/03/16 04:45:13;;;;;;;1.45;0.43;;;8.90;99.90;;;;;;5024433;28;20526;-69
2022/03/16 04:47:39;;;;;;;0.20;0.20;;;8.90;99.90;;;;;;5025457;28;20021;-69
2022/03/16 04:50:05;;;;;;;0.88;0.88;;;8.80;99.90;;;;;;5022539;28;20033;-70
2022/03/16 04:52:31;;;;;;;2.15;2.05;;;8.80;99.90;;;;;;5020797;28;20121;-67
2022/03/16 04:54:57;;;;;;;3.63;1.20;;;8.80;99.90;;;;;;5024055;28;20129;-68
2022/03/16 04:57:23;;;;;;;1.80;1.70;;;8.80;99.90;;;;;;5024162;28;20511;-68
2022/03/16 04:59:49;;;;;;;0.10;0.10;;;8.90;99.90;;;;;;5029300;28;20030;-68
2022/03/16 05:02:14;;;;;;;0.20;0.20;;;8.80;99.90;;;;;;5029346;28;20479;-68
2022/03/16 05:04:40;;;;;;;9.23;4.05;;;8.80;99.90;;;;;;5028688;28;20029;-68
2022/03/16 05:07:06;;;;;;;0.38;0.38;;;8.80;99.90;;;;;;5027217;28;20494;-67
2022/03/16 05:09:31;;;;;;;1.23;1.23;;;8.70;99.90;;;;;;5028705;28;20468;-67
2022/03/16 05:11:57;;;;;;;0.10;0.10;;;8.80;99.90;;;;;;5026842;28;20029;-68
2022/03/16 05:14:23;;;;;;;0.20;0.20;;;8.90;99.90;;;;;;5025945;28;20435;-67
2022/03/16 05:16:48;;;;;;;0.65;0.65;;;8.90;99.90;;;;;;5026033;28;20061;-67
2022/03/16 05:19:14;;;;;;;1.05;0.95;;;8.90;99.90;;;;;;5024551;28;20486;-68
2022/03/16 05:21:40;;;;;;;2.03;1.60;;;8.90;99.90;;;;;;5024364;28;20075;-68
2022/03/16 05:24:06;;;;;;;0.25;0.25;;;8.80;99.90;;;;;;5024719;28;20491;-68
2022/03/16 05:26:31;;;;;;;0.10;0.10;;;8.90;99.90;;;;;;5025566;28;20040;-67
2022/03/16 05:28:58;;;;;;;0.73;0.73;;;9.80;99.90;;;;;;5028958;28;20025;-68
2022/03/16 05:31:24;;;;;;;4.10;3.85;;;8.90;99.90;;;;;;5026480;28;20231;-68
2022/03/16 05:33:49;;;;;;;0.68;0.68;;;8.80;99.90;;;;;;5028559;28;20479;-68
2022/03/16 05:36:16;;;;;;;0.10;0.10;;;8.80;99.90;;;;;;5026713;28;20032;-68
2022/03/16 05:38:41;;;;;;;0.13;0.13;;;8.80;99.90;;;;;;5028431;28;20028;-67
2022/03/16 05:41:07;;;;;;;1.00;1.00;;;8.80;99.90;;;;;;5025347;28;20017;-68
2022/03/16 05:43:33;;;;;;;0.10;0.10;;;8.80;99.90;;;;;;5025397;28;20033;-67
2022/03/16 05:45:58;;;;;;;0.10;0.10;;;8.80;99.90;;;;;;5025078;28;20021;-69
2022/03/16 05:48:24;;;;;;;1.50;1.40;;;8.80;99.90;;;;;;5028512;28;20033;-69
2022/03/16 05:50:50;;;;;;;0.32;0.32;;;8.80;99.90;;;;;;5024974;28;20026;-69
2022/03/16 05:53:15;;;;;;;2.17;1.65;;;8.90;99.90;;;;;;5030442;28;20504;-69
2022/03/16 05:55:41;;;;;;;0.40;0.40;;;8.80;99.90;;;;;;5026385;28;20478;-69
2022/03/16 05:58:08;;;;;;;0.10;0.10;;;8.90;99.90;;;;;;5023561;28;20029;-69
2022/03/16 06:00:35;;;;;;;0.20;0.20;;;8.80;99.90;;;;;;5026825;28;20053;-68
2022/03/16 06:03:00;;;;;;;0.10;0.10;;;8.90;99.90;;;;;;5025082;28;20024;-68
2022/03/16 06:05:26;;;;;;;0.20;0.20;;;8.80;99.90;;;;;;5026865;28;20018;-68
2022/03/16 06:07:53;;;;;;;0.57;0.57;;;8.90;99.90;;;;;;5023731;28;20028;-69
2022/03/16 06:10:19;;;;;;;0.47;0.47;;;8.90;99.90;;;;;;5025970;28;20103;-68
2022/03/16 06:12:57;;;;;;;0.52;0.52;;;9.00;99.90;;;;;;5027104;28;20060;-68
2022/03/16 06:15:24;;;;;;;1.67;1.58;;;9.00;99.90;;;;;;5025211;28;20048;-68
2022/03/16 06:17:54;;;;;;;0.25;0.25;;;9.00;99.90;;;;;;5025462;28;20028;-69
2022/03/16 06:20:20;;;;;;;0.95;0.95;;;9.00;99.90;;;;;;5025488;28;20053;-68
2022/03/16 06:22:46;;;;;;;0.30;0.30;;;9.00;99.90;;;;;;5057588;22;20052;-67
2022/03/16 06:25:11;;;;;;;1.08;1.08;;;9.10;99.90;;;;;;5045734;28;20074;-64
2022/03/16 06:27:37;;;;;;;1.48;1.38;;;9.10;99.90;;;;;;5046990;28;20045;-63
2022/03/16 06:30:03;;;;;;;0.50;0.50;;;9.10;99.90;;;;;;5045779;28;20029;-63
2022/03/16 06:32:29;;;;;;;2.63;2.53;;;8.90;99.90;;;;;;5046055;28;20033;-62
2022/03/16 06:34:55;;;;;;;0.10;0.10;;;8.90;99.90;;;;;;5048361;28;20505;-63
2022/03/16 06:37:20;;;;;;;0.40;0.40;;;8.80;99.90;;;;;;5045646;28;20033;-64
2022/03/16 06:39:46;;;;;;;0.10;0.10;;;8.60;99.90;;;;;;5047220;28;20025;-64
2022/03/16 06:42:12;;;;;;;0.38;0.38;;;8.70;99.90;;;;;;5045030;28;20072;-65
2022/03/16 06:44:37;;;;;;;1.85;1.55;;;8.90;99.90;;;;;;5044041;28;20021;-65
2022/03/16 06:47:04;;;;;;;1.30;1.30;;;8.90;99.90;;;;;;5044226;28;20029;-66
2022/03/16 06:49:29;;;;;;;0.10;0.10;;;9.00;99.90;;;;;;5043188;28;20033;-63
2022/03/16 06:51:55;;;;;;;0.10;0.10;;;9.00;99.90;;;;;;5039571;28;20031;-64
2022/03/16 06:54:20;;;;;;;1.27;1.27;;;9.10;99.90;;;;;;5045521;28;20384;-64
2022/03/16 06:56:46;;;;;;;1.40;1.20;;;9.20;99.90;;;;;;5047384;28;20124;-65
2022/03/16 06:59:13;;;;;;;0.10;0.10;;;9.30;99.90;;;;;;5044097;28;20071;-64
2022/03/16 07:01:39;;;;;;;1.17;1.17;;;9.30;99.90;;;;;;5045508;28;20532;-64
2022/03/16 07:04:05;;;;;;;1.23;1.17;;;9.40;99.90;;;;;;5045488;28;20025;-65
2022/03/16 07:06:31;;;;;;;0.30;0.30;;;9.40;99.90;;;;;;5042376;28;20364;-65
2022/03/16 07:08:56;;;;;;;1.10;1.10;;;9.40;99.90;;;;;;5042103;28;20021;-65
2022/03/16 07:16:41;;;;;;;0.20;0.20;;;9.30;99.90;;;;;;5010582;28;20552;-69
2022/03/16 07:19:07;;;;;;;0.80;0.80;;;9.30;99.90;;;;;;5013565;28;20062;-69
2022/03/16 07:21:33;;;;;;;0.10;0.10;;;9.30;99.90;;;;;;5006820;28;20395;-68
2022/03/16 07:23:58;;;;;;;1.75;1.65;;;9.30;99.90;;;;;;5013094;28;20069;-69
2022/03/16 07:26:24;;;;;;;0.10;0.10;;;9.30;99.90;;;;;;5036888;22;20050;-65
2022/03/16 07:28:50;;;;;;;0.10;0.10;;;9.20;99.90;;;;;;5024853;28;20021;-65
2022/03/16 07:31:17;;;;;;;2.20;0.68;;;9.30;99.90;;;;;;5023908;28;20108;-66
2022/03/16 07:33:43;;;;;;;0.10;0.10;;;9.30;99.90;;;;;;5024188;28;20447;-65
2022/03/16 07:36:08;;;;;;;0.10;0.10;;;9.30;99.90;;;;;;5025283;28;20044;-65
2022/03/16 07:38:34;;;;;;;0.52;0.52;;;9.30;99.90;;;;;;5025326;28;20484;-64
2022/03/16 07:41:02;;;;;;;0.10;0.10;;;9.20;99.90;;;;;;5024609;28;20030;-65
2022/03/16 07:43:29;;;;;;;0.28;0.28;;;9.20;99.90;;;;;;5025948;28;20057;-65
2022/03/16 07:45:56;;;;;;;0.10;0.10;;;9.20;99.90;;;;;;5026297;28;20037;-65
2022/03/16 07:48:22;;;;;;;1.45;1.25;;;9.30;99.90;;;;;;5027873;28;20025;-65
2022/03/16 07:50:50;;;;;;;0.10;0.10;;;9.30;99.90;;;;;;5023723;28;20030;-67
2022/03/16 07:53:16;;;;;;;0.20;0.20;;;9.30;99.90;;;;;;5022500;28;20033;-65
2022/03/16 07:55:41;;;;;;;0.20;0.20;;;9.30;99.90;;;;;;5024350;28;20111;-65
2022/03/16 07:58:07;;;;;;;1.52;1.42;;;9.30;99.90;;;;;;5024042;28;20475;-65
2022/03/16 08:00:33;;;;;;;0.20;0.20;;;9.30;99.90;;;;;;5024484;28;20037;-66
2022/03/16 08:03:01;;;;;;;0.30;0.30;;;9.30;99.90;;;;;;5024182;28;20025;-65
2022/03/16 08:05:27;;;;;;;0.30;0.30;;;9.40;99.90;;;;;;5023137;28;20017;-66
2022/03/16 08:07:54;;;;;;;0.28;0.28;;;9.40;99.90;;;;;;5024456;28;20018;-65
2022/03/16 08:10:20;;;;;;;0.10;0.10;;;9.40;99.90;;;;;;5024393;28;20155;-64
2022/03/16 08:12:46;;;;;;;0.13;0.13;;;9.40;99.90;;;;;;5026402;28;20021;-65
2022/03/16 08:15:13;;;;;;;0.10;0.10;;;9.40;99.90;;;;;;5027425;28;20033;-65
2022/03/16 08:17:39;;;;;;;0.20;0.20;;;9.40;99.90;;;;;;5024250;28;20043;-65
2022/03/16 08:20:05;;;;;;;0.10;0.10;;;9.40;99.90;;;;;;5024692;28;20030;-65
2022/03/16 08:22:34;;;;;;;0.10;0.10;;;9.30;99.90;;;;;;5024088;28;20047;-65
2022/03/16 08:25:02;;;;;;;1.35;1.27;;;9.30;99.90;;;;;;5023244;28;20083;-65
2022/03/16 08:27:28;;;;;;;0.20;0.20;;;9.30;99.90;;;;;;5023764;28;20033;-64
2022/03/16 08:29:54;;;;;;;0.10;0.10;;;9.40;99.90;;;;;;5023775;28;20041;-67
2022/03/16 08:32:21;;;;;;;0.10;0.10;;;9.40;99.90;;;;;;5024341;28;20603;-65
2022/03/16 08:34:48;;;;;;;0.10;0.10;;;9.40;99.90;;;;;;5027161;28;20037;-65
2022/03/16 08:37:14;;;;;;;0.10;0.10;;;9.40;99.90;;;;;;5026086;28;20029;-66
2022/03/16 08:39:41;;;;;;;0.10;0.10;;;9.40;99.90;;;;;;5027008;28;20039;-66
2022/03/16 08:42:08;;;;;;;6.55;4.78;;;9.50;99.90;;;;;;5025781;28;20034;-66
2022/03/16 08:44:35;;;;;;;1.05;1.05;;;9.50;99.90;;;;;;5028838;28;20025;-66
2022/03/16 08:47:01;;;;;;;0.13;0.13;;;9.50;99.90;;;;;;5028861;28;20031;-67
2022/03/16 08:49:29;;;;;;;0.95;0.95;;;9.50;99.90;;;;;;5029000;28;20029;-65
2022/03/16 08:51:57;;;;;;;0.10;0.10;;;9.60;99.90;;;;;;5029992;28;20021;-65
2022/03/16 08:54:24;;;;;;;0.10;0.10;;;9.60;99.90;;;;;;5029010;28;20030;-64
2022/03/16 08:56:50;;;;;;;0.10;0.10;;;9.70;99.90;;;;;;5026869;28;20028;-64
2022/03/16 08:59:16;;;;;;;0.20;0.20;;;9.80;99.90;;;;;;5028026;28;20049;-65
2022/03/16 09:01:41;;;;;;;0.70;0.70;;;9.80;99.90;;;;;;5026421;28;20030;-65
2022/03/16 09:04:07;;;;;;;0.10;0.10;;;9.80;99.90;;;;;;5025781;28;20022;-65
2022/03/16 09:06:33;;;;;;;0.40;0.40;;;9.90;99.90;;;;;;5028270;28;20155;-66
2022/03/16 09:08:59;;;;;;;0.28;0.28;;;10.00;99.90;;;;;;5027254;28;20033;-67
2022/03/16 09:11:25;;;;;;;0.10;0.10;;;10.10;99.90;;;;;;5030863;28;20100;-65
2022/03/16 09:13:51;;;;;;;0.40;0.40;;;10.20;99.90;;;;;;5025767;28;20032;-65
2022/03/16 09:16:17;;;;;;;0.10;0.10;;;10.30;99.90;;;;;;5029559;28;20021;-65
2022/03/16 09:18:44;;;;;;;0.10;0.10;;;10.40;99.90;;;;;;5028443;28;20025;-65
2022/03/16 09:21:11;;;;;;;0.13;0.13;;;10.40;99.90;;;;;;5025862;28;20486;-66
2022/03/16 09:23:36;;;;;;;0.10;0.10;;;10.30;99.90;;;;;;5025619;28;20430;-65
2022/03/16 09:26:05;;;;;;;0.10;0.10;;;10.20;99.90;;;;;;5026602;28;20048;-66
2022/03/16 09:28:31;;;;;;;0.10;0.10;;;10.30;99.90;;;;;;5025182;28;20029;-66
2022/03/16 09:30:57;;;;;;;0.10;0.10;;;10.40;99.90;;;;;;5023766;28;20613;-65
2022/03/16 09:33:24;;;;;;;0.10;0.10;;;10.50;99.90;;;;;;5022379;28;20109;-67
2022/03/16 09:35:51;;;;;;;0.30;0.30;;;10.60;99.90;;;;;;5023550;28;20536;-66
2022/03/16 09:38:19;;;;;;;0.10;0.10;;;10.50;99.90;;;;;;5026545;28;20554;-65
2022/03/16 09:40:47;;;;;;;0.10;0.10;;;10.70;99.90;;;;;;5026244;28;20026;-65
2022/03/16 09:43:19;;;;;;;0.10;0.10;;;10.70;99.90;;;;;;5028202;28;20055;-64
2022/03/16 09:45:55;;;;;;;0.10;0.10;;;10.50;99.90;;;;;;5025996;28;20076;-64
2022/03/16 09:48:23;;;;;;;1.10;1.10;;;10.60;99.90;;;;;;5026596;28;20052;-65
2022/03/16 09:50:52;;;;;;;0.50;0.50;;;10.70;99.90;;;;;;5026193;28;20026;-64
2022/03/16 09:53:19;;;;;;;0.10;0.10;;;10.90;99.90;;;;;;5024434;28;20399;-64
2022/03/16 09:55:46;;;;;;;0.20;0.20;;;11.00;99.90;;;;;;5024701;28;20072;-65
2022/03/16 09:58:12;;;;;;;1.38;1.33;;;11.10;99.90;;;;;;5026135;28;20033;-65
2022/03/16 10:00:38;;;;;;;0.15;0.15;;;11.10;99.90;;;;;;5024045;28;20036;-64
2022/03/16 10:03:07;;;;;;;0.10;0.10;;;11.10;99.90;;;;;;5025788;28;20030;-65
2022/03/16 10:05:34;;;;;;;0.10;0.10;;;10.90;99.90;;;;;;5027157;28;20463;-65
2022/03/16 10:08:02;;;;;;;0.10;0.10;;;10.90;99.90;;;;;;5023593;28;20026;-63
2022/03/16 10:13:24;;;;;;;0.25;0.25;;;11.10;99.90;;;;;;5027158;28;20083;-64
2022/03/16 10:15:52;;;;;;;0.22;0.22;;;11.30;99.90;;;;;;5022743;28;20036;-65
2022/03/16 10:18:23;;;;;;;0.10;0.10;;;11.50;99.90;;;;;;5027023;28;20029;-65
2022/03/16 10:20:52;;;;;;;0.20;0.20;;;11.50;99.90;;;;;;5021418;28;20084;-65
2022/03/16 10:23:24;;;;;;;0.10;0.10;;;11.60;99.90;;;;;;5024601;28;20107;-64
2022/03/16 10:25:52;;;;;;;0.10;0.10;;;11.60;99.90;;;;;;5025585;28;20053;-65
2022/03/16 10:28:30;;;;;;;0.10;0.10;;;11.60;99.90;;;;;;5026012;28;20462;-65
2022/03/16 10:31:02;;;;;;;0.10;0.10;;;11.90;99.90;;;;;;5022420;28;20029;-64
2022/03/16 10:33:33;;;;;;;0.10;0.10;;;12.10;99.90;;;;;;5024834;28;20044;-65
2022/03/16 10:36:11;;;;;;;0.52;0.52;;;12.40;99.90;;;;;;5023503;28;20529;-65
2022/03/16 10:38:54;;;;;;;0.10;0.10;;;12.30;99.90;;;;;;5025101;28;20092;-64
2022/03/16 10:46:58;;;;;;;0.10;0.10;;;12.40;99.90;;;;;;5026865;28;20457;-64
2022/03/16 10:49:24;;;;;;;0.10;0.10;;;12.30;99.90;;;;;;5026905;28;20104;-66
2022/03/16 10:52:05;;;;;;;0.10;0.10;;;12.50;99.90;;;;;;5027252;28;20099;-65
2022/03/16 10:54:36;;;;;;;0.10;0.10;;;12.70;99.90;;;;;;5024248;28;20587;-67
2022/03/16 10:57:10;;;;;;;0.10;0.10;;;12.70;99.90;;;;;;5025801;28;20026;-66
2022/03/16 10:59:37;;;;;;;0.10;0.10;;;12.60;99.90;;;;;;5025659;28;20018;-66
2022/03/16 11:02:16;;;;;;;0.20;0.20;;;12.70;99.90;;;;;;5026186;28;20113;-67
2022/03/16 11:04:44;;;;;;;0.70;0.70;;;12.80;99.90;;;;;;5026233;28;20366;-68
2022/03/16 11:07:10;;;;;;;0.10;0.10;;;12.80;99.90;;;;;;5026937;28;20537;-69
2022/03/16 11:09:37;;;;;;;0.10;0.10;;;12.90;99.90;;;;;;5026444;28;20076;-66
2022/03/16 11:14:51;;;;;;;0.10;0.10;;;13.10;99.90;;;;;;5026846;28;20580;-67
2022/03/16 11:17:19;;;;;;;0.20;0.20;;;13.20;99.90;;;;;;5023748;28;20053;-67
2022/03/16 11:19:48;;;;;;;0.20;0.20;;;13.30;99.90;;;;;;5024119;28;20057;-66
2022/03/16 11:22:14;;;;;;;0.10;0.10;;;13.50;99.90;;;;;;5024684;28;20026;-66
2022/03/16 11:24:48;;;;;;;0.10;0.10;;;13.50;99.90;;;;;;5025444;28;20738;-67
2022/03/16 11:27:25;;;;;;;0.10;0.10;;;13.50;99.90;;;;;;5023400;28;20199;-66
2022/03/16 11:30:12;;;;;;;0.17;0.17;;;13.50;99.90;;;;;;5024776;28;20037;-65
2022/03/16 11:32:43;;;;;;;0.10;0.10;;;13.40;99.90;;;;;;5022869;28;20029;-67
2022/03/16 11:35:12;;;;;;;0.35;0.35;;;13.60;99.90;;;;;;5023249;28;20029;-65
2022/03/16 11:37:43;;;;;;;0.10;0.10;;;13.90;99.90;;;;;;5023118;28;20478;-65
2022/03/16 11:40:12;;;;;;;0.10;0.10;;;13.80;99.90;;;;;;5025936;28;20048;-66
2022/03/16 11:43:04;;;;;;;0.05;0.05;;;13.50;99.90;;;;;;5023956;28;20069;-66
2022/03/16 11:45:50;;;;;;;0.10;0.10;;;13.70;99.90;;;;;;5023944;28;20025;-66
2022/03/16 11:48:35;;;;;;;0.10;0.10;;;13.70;99.90;;;;;;5023414;28;20095;-68
2022/03/16 11:51:13;;;;;;;0.00;0.00;;;13.30;99.90;;;;;;5026071;28;20025;-64
2022/03/16 11:53:48;;;;;;;0.10;0.10;;;13.40;99.90;;;;;;5025308;28;20029;-64
2022/03/16 11:56:21;;;;;;;0.10;0.10;;;13.70;99.90;;;;;;5020645;28;20021;-65
2022/03/16 11:58:47;;;;;;;;;;;13.80;99.90;;;;;;5026366;28;20025;-65
2022/03/16 12:01:25;;;;;;;0.10;0.10;;;14.00;99.90;;;;;;5024160;28;19905;-68
2022/03/16 12:04:11;;;;;;;1.45;1.42;;;14.40;99.90;;;;;;5023505;28;20479;-64
2022/03/16 12:07:06;;;;;;;0.22;0.22;;;14.60;99.90;;;;;;5025158;28;20491;-65
2022/03/16 12:09:47;;;;;;;0.10;0.10;;;14.20;99.90;;;;;;5029577;28;20525;-64
2022/03/16 12:15:11;;;;;;;0.03;0.03;;;14.20;99.90;;;;;;5029784;28;20664;-65
2022/03/16 12:17:40;;;;;;;;;;;14.10;99.90;;;;;;5030487;28;20033;-65
2022/03/16 12:20:25;;;;;;;0.00;0.00;;;14.10;99.90;;;;;;5028683;28;19913;-66
2022/03/16 12:22:56;;;;;;;0.20;0.20;;;13.80;99.90;;;;;;5026272;28;20089;-66
2022/03/16 12:25:29;;;;;;;0.17;0.17;;;13.90;99.90;;;;;;5028434;28;20094;-66
2022/03/16 12:31:07;;;;;;;0.10;0.10;;;13.90;99.90;;;;;;5028077;28;20056;-65
2022/03/16 12:33:43;;;;;;;0.10;0.10;;;13.80;99.90;;;;;;5028304;28;20057;-66
2022/03/16 12:36:18;;;;;;;0.10;0.10;;;13.90;99.90;;;;;;5029342;28;20030;-65
2022/03/16 12:38:47;;;;;;;0.40;0.40;;;13.90;99.90;;;;;;5029441;28;20071;-65
2022/03/16 12:44:03;;;;;;;0.10;0.10;;;13.70;99.90;;;;;;5030014;28;20028;-66
2022/03/16 12:47:00;;;;;;;0.30;0.30;;;13.60;99.90;;;;;;5026264;28;20497;-65
2022/03/16 12:49:26;;;;;;;0.10;0.10;;;13.60;99.90;;;;;;5028561;28;20025;-65
2022/03/16 12:51:59;;;;;;;0.10;0.10;;;13.60;99.90;;;;;;5028918;28;20021;-65
2022/03/16 12:54:36;;;;;;;;;;;13.70;99.90;;;;;;5029175;28;20060;-66
2022/03/16 12:57:09;;;;;;;0.10;0.10;;;13.80;99.90;;;;;;5028153;28;19916;-65
2022/03/16 12:59:38;;;;;;;0.10;0.10;;;14.00;99.90;;;;;;5025928;28;20018;-65
2022/03/16 13:02:12;;;;;;;0.10;0.10;;;14.20;99.90;;;;;;5027692;28;20028;-65
2022/03/16 13:04:40;;;;;;;0.10;0.10;;;14.20;99.90;;;;;;5028565;28;20025;-65
2022/03/16 13:07:07;;;;;;;0.10;0.10;;;14.10;99.90;;;;;;5028874;28;20064;-65
2022/03/16 13:09:34;;;;;;;0.10;0.10;;;14.10;99.90;;;;;;5030649;28;20029;-64
2022/03/16 13:12:09;;;;;;;0.20;0.20;;;14.20;99.90;;;;;;5028469;28;20040;-63
2022/03/16 13:14:38;;;;;;;0.10;0.10;;;14.30;99.90;;;;;;5026075;28;20025;-63
2022/03/16 13:17:07;;;;;;;0.10;0.10;;;14.50;99.90;;;;;;5028665;28;20899;-64
2022/03/16 13:25:45;;;;;;;0.00;0.00;;;15.10;99.90;;;;;;4988838;22;20103;-67
2022/03/16 13:28:11;;;;;;;0.10;0.10;;;15.70;99.90;;;;;;5022484;28;20635;-71